sensor_id;sensor_type;location;lat;lon;timestamp;temperature;humidity
59234;DHT22;60776;51.702;7.462;2023-06-26T00:00:18;24.00;99.90
59234;DHT22;60776;51.702;7.462;2023-06-26T00:02:44;24.10;99.90
59234;DHT22;60776;51.702;7.462;2023-06-26T00:05:10;24.10;99.90
59234;DHT22;60776;51.702;7.462;2023-06-26T00:07:39;24.10;99.90
59234;DHT22;60776;51.702;7.462;2023-06-26T00:10:05;24.00;99.90
59234;DHT22;60776;51.702;7.462;2023-06-26T00:12:31;24.00;99.90
59234;DHT22;60776;51.702;7.462;2023-06-26T00:14:58;24.10;99.90
59234;DHT22;60776;51.702;7.462;2023-06-26T00:17:23;24.10;99.90
59234;DHT22;60776;51.702;7.462;2023-06-26T00:19:50;24.10;99.90
59234;DHT22;60776;51.702;7.462;2023-06-26T00:22:16;24.20;99.90
59234;DHT22;60776;51.702;7.462;2023-06-26T00:24:42;24.20;99.90
59234;DHT22;60776;51.702;7.462;2023-06-26T00:27:07;24.20;99.90
59234;DHT22;60776;51.702;7.462;2023-06-26T00:29:33;24.20;99.90
59234;DHT22;60776;51.702;7.462;2023-06-26T00:31:59;24.20;99.90
59234;DHT22;60776;51.702;7.462;2023-06-26T00:34:24;24.20;99.90
59234;DHT22;60776;51.702;7.462;2023-06-26T00:36:50;24.10;99.90
59234;DHT22;60776;51.702;7.462;2023-06-26T00:39:16;24.20;99.90
59234;DHT22;60776;51.702;7.462;2023-06-26T00:41:41;24.10;99.90
59234;DHT22;60776;51.702;7.462;2023-06-26T00:44:07;24.00;99.90
59234;DHT22;60776;51.702;7.462;2023-06-26T00:46:34;24.10;99.90
59234;DHT22;60776;51.702;7.462;2023-06-26T00:49:02;24.00;99.90
59234;DHT22;60776;51.702;7.462;2023-06-26T00:51:29;24.00;99.90
59234;DHT22;60776;51.702;7.462;2023-06-26T00:53:55;24.00;99.90
59234;DHT22;60776;51.702;7.462;2023-06-26T00:56:24;23.90;99.90
59234;DHT22;60776;51.702;7.462;2023-06-26T00:58:50;23.90;99.90
59234;DHT22;60776;51.702;7.462;2023-06-26T01:01:15;23.90;99.90
59234;DHT22;60776;51.702;7.462;2023-06-26T01:03:45;23.80;99.90
59234;DHT22;60776;51.702;7.462;2023-06-26T01:06:17;23.80;99.90
59234;DHT22;60776;51.702;7.462;2023-06-26T01:08:50;23.70;99.90
59234;DHT22;60776;51.702;7.462;2023-06-26T01:11:17;23.70;99.90
59234;DHT22;60776;51.702;7.462;2023-06-26T01:13:43;23.70;99.90
59234;DHT22;60776;51.702;7.462;2023-06-26T01:16:12;23.70;99.90
59234;DHT22;60776;51.702;7.462;2023-06-26T01:18:39;23.60;99.90
59234;DHT22;60776;51.702;7.462;2023-06-26T01:21:07;23.50;99.90
59234;DHT22;60776;51.702;7.462;2023-06-26T01:23:40;23.60;99.90
59234;DHT22;60776;51.702;7.462;2023-06-26T01:26:22;23.50;99.90
59234;DHT22;60776;51.702;7.462;2023-06-26T01:28:50;23.50;99.90
59234;DHT22;60776;51.702;7.462;2023-06-26T01:31:19;23.50;99.90
59234;DHT22;60776;51.702;7.462;2023-06-26T01:33:45;23.40;99.90
59234;DHT22;60776;51.702;7.462;2023-06-26T01:36:12;23.40;99.90
59234;DHT22;60776;51.702;7.462;2023-06-26T01:38:41;23.40;99.90
59234;DHT22;60776;51.702;7.462;2023-06-26T01:41:09;23.40;99.90
59234;DHT22;60776;51.702;7.462;2023-06-26T01:46:48;23.40;99.90
59234;DHT22;60776;51.702;7.462;2023-06-26T01:51:55;23.40;99.90
59234;DHT22;60776;51.702;7.462;2023-06-26T01:54:28;23.40;99.90
59234;DHT22;60776;51.702;7.462;2023-06-26T01:56:57;23.30;99.90
59234;DHT22;60776;51.702;7.462;2023-06-26T01:59:24;23.30;99.90
59234;DHT22;60776;51.702;7.462;2023-06-26T02:01:52;23.30;99.90
59234;DHT22;60776;51.702;7.462;2023-06-26T02:04:18;23.30;99.90
59234;DHT22;60776;51.702;7.462;2023-06-26T02:06:43;23.30;99.90
59234;DHT22;60776;51.702;7.462;2023-06-26T02:09:09;23.30;99.90
59234;DHT22;60776;51.702;7.462;2023-06-26T02:11:35;23.30;99.90
59234;DHT22;60776;51.702;7.462;2023-06-26T02:14:00;23.20;99.90
59234;DHT22;60776;51.702;7.462;2023-06-26T02:16:26;23.20;99.90
59234;DHT22;60776;51.702;7.462;2023-06-26T02:18:52;23.20;99.90
59234;DHT22;60776;51.702;7.462;2023-06-26T02:21:17;23.10;99.90
59234;DHT22;60776;51.702;7.462;2023-06-26T02:23:43;23.10;99.90
59234;DHT22;60776;51.702;7.462;2023-06-26T02:26:09;23.10;99.90
59234;DHT22;60776;51.702;7.462;2023-06-26T02:28:34;23.10;99.90
59234;DHT22;60776;51.702;7.462;2023-06-26T02:31:00;23.10;99.90
59234;DHT22;60776;51.702;7.462;2023-06-26T02:33:26;23.10;99.90
59234;DHT22;60776;51.702;7.462;2023-06-26T02:35:51;23.00;99.90
59234;DHT22;60776;51.702;7.462;2023-06-26T02:38:18;23.00;99.90
59234;DHT22;60776;51.702;7.462;2023-06-26T02:40:44;23.00;99.90
59234;DHT22;60776;51.702;7.462;2023-06-26T02:43:09;22.90;99.90
59234;DHT22;60776;51.702;7.462;2023-06-26T02:45:35;22.90;99.90
59234;DHT22;60776;51.702;7.462;2023-06-26T02:48:01;22.90;99.90
59234;DHT22;60776;51.702;7.462;2023-06-26T02:50:26;22.80;99.90
59234;DHT22;60776;51.702;7.462;2023-06-26T02:52:52;22.80;99.90
59234;DHT22;60776;51.702;7.462;2023-06-26T02:55:21;22.80;99.90
59234;DHT22;60776;51.702;7.462;2023-06-26T02:57:47;22.80;99.90
59234;DHT22;60776;51.702;7.462;2023-06-26T03:00:13;22.80;99.90
59234;DHT22;60776;51.702;7.462;2023-06-26T03:02:39;22.80;99.90
59234;DHT22;60776;51.702;7.462;2023-06-26T03:05:05;22.80;99.90
59234;DHT22;60776;51.702;7.462;2023-06-26T03:07:30;22.80;99.90
59234;DHT22;60776;51.702;7.462;2023-06-26T03:09:56;22.80;99.90
59234;DHT22;60776;51.702;7.462;2023-06-26T03:12:22;22.80;99.90
59234;DHT22;60776;51.702;7.462;2023-06-26T03:14:47;22.80;99.90
59234;DHT22;60776;51.702;7.462;2023-06-26T03:17:13;22.80;99.90
59234;DHT22;60776;51.702;7.462;2023-06-26T03:19:39;22.80;99.90
59234;DHT22;60776;51.702;7.462;2023-06-26T03:22:05;22.80;99.90
59234;DHT22;60776;51.702;7.462;2023-06-26T03:24:31;22.80;99.90
59234;DHT22;60776;51.702;7.462;2023-06-26T03:26:56;22.80;99.90
59234;DHT22;60776;51.702;7.462;2023-06-26T03:29:22;22.90;99.90
59234;DHT22;60776;51.702;7.462;2023-06-26T03:31:48;22.90;99.90
59234;DHT22;60776;51.702;7.462;2023-06-26T03:34:13;22.90;99.90
59234;DHT22;60776;51.702;7.462;2023-06-26T03:36:39;23.00;99.90
59234;DHT22;60776;51.702;7.462;2023-06-26T03:39:04;23.10;99.90
59234;DHT22;60776;51.702;7.462;2023-06-26T03:41:30;23.30;99.90
59234;DHT22;60776;51.702;7.462;2023-06-26T03:43:56;23.50;99.90
59234;DHT22;60776;51.702;7.462;2023-06-26T03:46:22;23.80;99.90
59234;DHT22;60776;51.702;7.462;2023-06-26T03:48:48;24.10;99.90
59234;DHT22;60776;51.702;7.462;2023-06-26T03:51:14;24.40;99.90
59234;DHT22;60776;51.702;7.462;2023-06-26T03:53:40;24.80;99.90
59234;DHT22;60776;51.702;7.462;2023-06-26T03:56:06;25.10;99.90
59234;DHT22;60776;51.702;7.462;2023-06-26T03:58:31;25.30;99.90
59234;DHT22;60776;51.702;7.462;2023-06-26T04:00:57;25.70;99.80
59234;DHT22;60776;51.702;7.462;2023-06-26T04:03:23;26.00;98.40
59234;DHT22;60776;51.702;7.462;2023-06-26T04:05:49;26.30;96.90
59234;DHT22;60776;51.702;7.462;2023-06-26T04:08:15;26.70;95.20
59234;DHT22;60776;51.702;7.462;2023-06-26T04:10:40;27.10;91.50
59234;DHT22;60776;51.702;7.462;2023-06-26T04:13:11;27.40;90.00
59234;DHT22;60776;51.702;7.462;2023-06-26T04:15:37;27.80;85.80
59234;DHT22;60776;51.702;7.462;2023-06-26T04:18:03;27.90;80.80
59234;DHT22;60776;51.702;7.462;2023-06-26T04:20:28;28.10;81.00
59234;DHT22;60776;51.702;7.462;2023-06-26T04:22:54;28.60;77.00
59234;DHT22;60776;51.702;7.462;2023-06-26T04:25:22;29.00;75.70
59234;DHT22;60776;51.702;7.462;2023-06-26T04:27:47;29.50;73.70
59234;DHT22;60776;51.702;7.462;2023-06-26T04:30:13;30.00;71.10
59234;DHT22;60776;51.702;7.462;2023-06-26T04:32:39;30.40;68.80
59234;DHT22;60776;51.702;7.462;2023-06-26T04:35:05;30.60;65.70
59234;DHT22;60776;51.702;7.462;2023-06-26T04:37:31;30.90;64.30
59234;DHT22;60776;51.702;7.462;2023-06-26T04:39:56;31.10;63.50
59234;DHT22;60776;51.702;7.462;2023-06-26T04:42:22;31.40;62.20
59234;DHT22;60776;51.702;7.462;2023-06-26T04:44:48;31.70;61.40
59234;DHT22;60776;51.702;7.462;2023-06-26T04:47:13;31.80;60.70
59234;DHT22;60776;51.702;7.462;2023-06-26T04:49:41;32.00;59.90
59234;DHT22;60776;51.702;7.462;2023-06-26T04:52:12;32.30;59.20
59234;DHT22;60776;51.702;7.462;2023-06-26T04:54:40;32.40;58.50
59234;DHT22;60776;51.702;7.462;2023-06-26T04:57:06;32.60;58.50
59234;DHT22;60776;51.702;7.462;2023-06-26T04:59:34;32.50;57.00
59234;DHT22;60776;51.702;7.462;2023-06-26T05:01:59;32.10;57.40
59234;DHT22;60776;51.702;7.462;2023-06-26T05:04:25;32.10;58.10
59234;DHT22;60776;51.702;7.462;2023-06-26T05:06:51;32.40;58.10
59234;DHT22;60776;51.702;7.462;2023-06-26T05:09:16;32.80;57.50
59234;DHT22;60776;51.702;7.462;2023-06-26T05:11:42;32.90;56.90
59234;DHT22;60776;51.702;7.462;2023-06-26T05:14:08;33.10;56.60
59234;DHT22;60776;51.702;7.462;2023-06-26T05:16:34;33.20;56.50
59234;DHT22;60776;51.702;7.462;2023-06-26T05:19:00;33.50;56.30
59234;DHT22;60776;51.702;7.462;2023-06-26T05:21:26;33.20;55.70
59234;DHT22;60776;51.702;7.462;2023-06-26T05:23:55;33.30;56.00
59234;DHT22;60776;51.702;7.462;2023-06-26T05:26:21;33.40;56.20
59234;DHT22;60776;51.702;7.462;2023-06-26T05:28:47;33.60;55.60
59234;DHT22;60776;51.702;7.462;2023-06-26T05:31:15;33.90;55.50
59234;DHT22;60776;51.702;7.462;2023-06-26T05:33:43;33.90;54.90
59234;DHT22;60776;51.702;7.462;2023-06-26T05:36:09;34.00;54.70
59234;DHT22;60776;51.702;7.462;2023-06-26T05:38:35;33.90;55.30
59234;DHT22;60776;51.702;7.462;2023-06-26T05:41:01;34.20;55.10
59234;DHT22;60776;51.702;7.462;2023-06-26T05:43:27;34.20;54.80
59234;DHT22;60776;51.702;7.462;2023-06-26T05:45:53;34.10;54.90
59234;DHT22;60776;51.702;7.462;2023-06-26T05:48:18;34.20;55.10
59234;DHT22;60776;51.702;7.462;2023-06-26T05:50:44;34.70;54.60
59234;DHT22;60776;51.702;7.462;2023-06-26T05:53:10;34.90;53.60
59234;DHT22;60776;51.702;7.462;2023-06-26T05:55:37;34.80;53.30
59234;DHT22;60776;51.702;7.462;2023-06-26T05:58:03;34.80;53.30
59234;DHT22;60776;51.702;7.462;2023-06-26T06:00:29;34.50;53.20
59234;DHT22;60776;51.702;7.462;2023-06-26T06:02:55;34.80;53.60
59234;DHT22;60776;51.702;7.462;2023-06-26T06:05:28;34.80;52.60
59234;DHT22;60776;51.702;7.462;2023-06-26T06:07:56;34.90;52.20
59234;DHT22;60776;51.702;7.462;2023-06-26T06:10:22;34.80;52.50
59234;DHT22;60776;51.702;7.462;2023-06-26T06:12:47;35.00;52.20
59234;DHT22;60776;51.702;7.462;2023-06-26T06:15:13;35.50;52.10
59234;DHT22;60776;51.702;7.462;2023-06-26T06:17:39;36.10;51.10
59234;DHT22;60776;51.702;7.462;2023-06-26T06:20:05;36.20;50.70
59234;DHT22;60776;51.702;7.462;2023-06-26T06:22:39;35.60;50.40
59234;DHT22;60776;51.702;7.462;2023-06-26T06:25:07;35.30;50.90
59234;DHT22;60776;51.702;7.462;2023-06-26T06:27:33;34.30;51.80
59234;DHT22;60776;51.702;7.462;2023-06-26T06:29:59;33.00;53.10
59234;DHT22;60776;51.702;7.462;2023-06-26T06:32:24;31.70;55.10
59234;DHT22;60776;51.702;7.462;2023-06-26T06:34:50;30.40;57.40
59234;DHT22;60776;51.702;7.462;2023-06-26T06:37:16;29.60;58.80
59234;DHT22;60776;51.702;7.462;2023-06-26T06:39:41;29.40;61.00
59234;DHT22;60776;51.702;7.462;2023-06-26T06:42:07;30.00;60.00
59234;DHT22;60776;51.702;7.462;2023-06-26T06:44:35;30.00;59.90
59234;DHT22;60776;51.702;7.462;2023-06-26T06:47:01;30.10;60.40
59234;DHT22;60776;51.702;7.462;2023-06-26T06:49:27;30.20;60.10
59234;DHT22;60776;51.702;7.462;2023-06-26T06:51:52;30.60;59.40
59234;DHT22;60776;51.702;7.462;2023-06-26T06:54:18;30.60;59.40
59234;DHT22;60776;51.702;7.462;2023-06-26T06:56:44;31.00;59.30
59234;DHT22;60776;51.702;7.462;2023-06-26T06:59:09;31.60;58.00
59234;DHT22;60776;51.702;7.462;2023-06-26T07:01:35;32.00;58.10
59234;DHT22;60776;51.702;7.462;2023-06-26T07:04:01;32.00;57.00
59234;DHT22;60776;51.702;7.462;2023-06-26T07:06:26;31.50;56.80
59234;DHT22;60776;51.702;7.462;2023-06-26T07:08:52;30.80;58.40
59234;DHT22;60776;51.702;7.462;2023-06-26T07:11:18;30.00;59.50
59234;DHT22;60776;51.702;7.462;2023-06-26T07:13:43;29.60;61.10
59234;DHT22;60776;51.702;7.462;2023-06-26T07:16:09;30.20;61.90
59234;DHT22;60776;51.702;7.462;2023-06-26T07:18:37;31.20;59.80
59234;DHT22;60776;51.702;7.462;2023-06-26T07:21:03;32.50;58.70
59234;DHT22;60776;51.702;7.462;2023-06-26T07:23:29;33.10;56.00
59234;DHT22;60776;51.702;7.462;2023-06-26T07:25:58;33.80;55.20
59234;DHT22;60776;51.702;7.462;2023-06-26T07:28:24;34.40;54.40
59234;DHT22;60776;51.702;7.462;2023-06-26T07:30:50;34.90;52.90
59234;DHT22;60776;51.702;7.462;2023-06-26T07:33:16;35.10;52.90
59234;DHT22;60776;51.702;7.462;2023-06-26T07:35:41;35.30;52.20
59234;DHT22;60776;51.702;7.462;2023-06-26T07:38:07;35.20;51.60
59234;DHT22;60776;51.702;7.462;2023-06-26T07:40:33;35.60;51.40
59234;DHT22;60776;51.702;7.462;2023-06-26T07:42:58;36.30;51.60
59234;DHT22;60776;51.702;7.462;2023-06-26T07:45:24;36.00;51.00
59234;DHT22;60776;51.702;7.462;2023-06-26T07:47:50;35.80;50.80
59234;DHT22;60776;51.702;7.462;2023-06-26T07:50:18;36.00;51.10
59234;DHT22;60776;51.702;7.462;2023-06-26T07:52:50;36.70;50.40
59234;DHT22;60776;51.702;7.462;2023-06-26T07:55:25;37.20;49.10
59234;DHT22;60776;51.702;7.462;2023-06-26T07:57:51;38.30;48.20
59234;DHT22;60776;51.702;7.462;2023-06-26T08:00:20;39.10;47.40
59234;DHT22;60776;51.702;7.462;2023-06-26T08:02:46;39.90;46.20
59234;DHT22;60776;51.702;7.462;2023-06-26T08:05:12;40.10;45.10
59234;DHT22;60776;51.702;7.462;2023-06-26T08:07:37;40.20;44.40
59234;DHT22;60776;51.702;7.462;2023-06-26T08:10:04;39.80;44.90
59234;DHT22;60776;51.702;7.462;2023-06-26T08:12:29;39.60;45.20
59234;DHT22;60776;51.702;7.462;2023-06-26T08:14:55;38.60;45.50
59234;DHT22;60776;51.702;7.462;2023-06-26T08:17:23;37.30;47.20
59234;DHT22;60776;51.702;7.462;2023-06-26T08:19:48;36.90;47.30
59234;DHT22;60776;51.702;7.462;2023-06-26T08:22:14;36.10;48.00
59234;DHT22;60776;51.702;7.462;2023-06-26T08:24:40;34.90;49.40
59234;DHT22;60776;51.702;7.462;2023-06-26T08:27:05;34.30;50.80
59234;DHT22;60776;51.702;7.462;2023-06-26T08:29:33;33.90;51.50
59234;DHT22;60776;51.702;7.462;2023-06-26T08:31:59;33.30;52.90
59234;DHT22;60776;51.702;7.462;2023-06-26T08:34:24;34.00;53.50
59234;DHT22;60776;51.702;7.462;2023-06-26T08:36:50;35.00;51.60
59234;DHT22;60776;51.702;7.462;2023-06-26T08:39:16;35.70;51.10
59234;DHT22;60776;51.702;7.462;2023-06-26T08:41:42;36.60;49.80
59234;DHT22;60776;51.702;7.462;2023-06-26T08:44:07;36.60;48.90
59234;DHT22;60776;51.702;7.462;2023-06-26T08:46:33;36.50;48.50
59234;DHT22;60776;51.702;7.462;2023-06-26T08:49:14;36.30;48.50
59234;DHT22;60776;51.702;7.462;2023-06-26T08:51:45;35.60;48.70
59234;DHT22;60776;51.702;7.462;2023-06-26T08:54:22;34.70;49.60
59234;DHT22;60776;51.702;7.462;2023-06-26T08:56:50;34.00;51.00
59234;DHT22;60776;51.702;7.462;2023-06-26T08:59:16;34.80;51.60
59234;DHT22;60776;51.702;7.462;2023-06-26T09:01:45;35.00;50.00
59234;DHT22;60776;51.702;7.462;2023-06-26T09:04:14;35.50;50.20
59234;DHT22;60776;51.702;7.462;2023-06-26T09:06:40;36.20;49.70
59234;DHT22;60776;51.702;7.462;2023-06-26T09:09:06;36.70;48.90
59234;DHT22;60776;51.702;7.462;2023-06-26T09:11:33;38.00;48.20
59234;DHT22;60776;51.702;7.462;2023-06-26T09:13:59;39.30;46.20
59234;DHT22;60776;51.702;7.462;2023-06-26T09:16:26;39.90;44.70
59234;DHT22;60776;51.702;7.462;2023-06-26T09:18:52;40.10;43.80
59234;DHT22;60776;51.702;7.462;2023-06-26T09:21:18;38.80;43.80
59234;DHT22;60776;51.702;7.462;2023-06-26T09:23:44;38.80;45.10
59234;DHT22;60776;51.702;7.462;2023-06-26T09:26:11;39.90;44.90
59234;DHT22;60776;51.702;7.462;2023-06-26T09:28:37;39.20;43.50
59234;DHT22;60776;51.702;7.462;2023-06-26T09:31:07;38.00;43.80
59234;DHT22;60776;51.702;7.462;2023-06-26T09:33:37;36.60;44.70
59234;DHT22;60776;51.702;7.462;2023-06-26T09:36:07;35.40;46.60
59234;DHT22;60776;51.702;7.462;2023-06-26T09:38:35;36.20;47.80
59234;DHT22;60776;51.702;7.462;2023-06-26T09:41:02;36.50;46.60
59234;DHT22;60776;51.702;7.462;2023-06-26T09:43:31;36.50;46.40
59234;DHT22;60776;51.702;7.462;2023-06-26T09:45:57;38.00;45.40
59234;DHT22;60776;51.702;7.462;2023-06-26T09:48:24;39.50;43.40
59234;DHT22;60776;51.702;7.462;2023-06-26T09:50:49;40.50;41.10
59234;DHT22;60776;51.702;7.462;2023-06-26T09:53:15;40.60;39.80
59234;DHT22;60776;51.702;7.462;2023-06-26T09:55:43;40.00;39.90
59234;DHT22;60776;51.702;7.462;2023-06-26T09:58:13;38.70;40.70
59234;DHT22;60776;51.702;7.462;2023-06-26T10:00:41;36.90;42.60
59234;DHT22;60776;51.702;7.462;2023-06-26T10:03:10;35.80;44.30
59234;DHT22;60776;51.702;7.462;2023-06-26T10:05:38;35.20;44.80
59234;DHT22;60776;51.702;7.462;2023-06-26T10:08:05;34.60;45.10
59234;DHT22;60776;51.702;7.462;2023-06-26T10:10:35;34.90;45.30
59234;DHT22;60776;51.702;7.462;2023-06-26T10:13:11;36.30;44.30
59234;DHT22;60776;51.702;7.462;2023-06-26T10:15:42;37.60;42.00
59234;DHT22;60776;51.702;7.462;2023-06-26T10:18:09;37.50;41.20
59234;DHT22;60776;51.702;7.462;2023-06-26T10:20:39;38.60;40.80
59234;DHT22;60776;51.702;7.462;2023-06-26T10:23:07;40.00;39.70
59234;DHT22;60776;51.702;7.462;2023-06-26T10:25:37;40.90;37.00
59234;DHT22;60776;51.702;7.462;2023-06-26T10:28:08;40.80;35.20
59234;DHT22;60776;51.702;7.462;2023-06-26T10:30:37;41.20;35.80
59234;DHT22;60776;51.702;7.462;2023-06-26T10:33:04;41.50;34.80
59234;DHT22;60776;51.702;7.462;2023-06-26T10:35:31;42.00;34.50
59234;DHT22;60776;51.702;7.462;2023-06-26T10:38:03;42.50;34.80
59234;DHT22;60776;51.702;7.462;2023-06-26T10:40:43;42.90;33.60
59234;DHT22;60776;51.702;7.462;2023-06-26T10:43:12;40.90;32.80
59234;DHT22;60776;51.702;7.462;2023-06-26T10:45:47;38.70;35.10
59234;DHT22;60776;51.702;7.462;2023-06-26T10:48:17;37.10;38.40
59234;DHT22;60776;51.702;7.462;2023-06-26T10:50:43;38.00;39.00
59234;DHT22;60776;51.702;7.462;2023-06-26T10:56:04;41.20;36.60
59234;DHT22;60776;51.702;7.462;2023-06-26T10:58:42;42.50;33.60
59234;DHT22;60776;51.702;7.462;2023-06-26T11:03:38;42.80;32.90
59234;DHT22;60776;51.702;7.462;2023-06-26T11:06:11;43.40;33.10
59234;DHT22;60776;51.702;7.462;2023-06-26T11:08:53;42.90;33.00
59234;DHT22;60776;51.702;7.462;2023-06-26T11:11:20;41.50;33.50
59234;DHT22;60776;51.702;7.462;2023-06-26T11:13:47;41.90;34.20
59234;DHT22;60776;51.702;7.462;2023-06-26T11:16:14;42.90;32.50
59234;DHT22;60776;51.702;7.462;2023-06-26T11:18:40;42.00;32.10
59234;DHT22;60776;51.702;7.462;2023-06-26T11:21:10;39.50;34.00
59234;DHT22;60776;51.702;7.462;2023-06-26T11:23:37;37.90;36.10
59234;DHT22;60776;51.702;7.462;2023-06-26T11:26:19;36.40;37.50
59234;DHT22;60776;51.702;7.462;2023-06-26T11:28:51;35.10;40.60
59234;DHT22;60776;51.702;7.462;2023-06-26T11:31:43;34.20;42.30
59234;DHT22;60776;51.702;7.462;2023-06-26T11:34:13;33.30;43.20
59234;DHT22;60776;51.702;7.462;2023-06-26T11:36:42;32.80;44.50
59234;DHT22;60776;51.702;7.462;2023-06-26T11:39:08;32.30;45.20
59234;DHT22;60776;51.702;7.462;2023-06-26T11:41:35;32.50;45.60
59234;DHT22;60776;51.702;7.462;2023-06-26T11:44:09;33.90;44.80
59234;DHT22;60776;51.702;7.462;2023-06-26T11:46:39;34.20;43.20
59234;DHT22;60776;51.702;7.462;2023-06-26T11:49:06;34.80;42.80
59234;DHT22;60776;51.702;7.462;2023-06-26T11:51:33;34.70;42.50
59234;DHT22;60776;51.702;7.462;2023-06-26T11:54:00;34.90;42.30
59234;DHT22;60776;51.702;7.462;2023-06-26T11:56:29;34.70;42.00
59234;DHT22;60776;51.702;7.462;2023-06-26T12:01:36;32.90;42.50
59234;DHT22;60776;51.702;7.462;2023-06-26T12:04:03;32.90;43.40
59234;DHT22;60776;51.702;7.462;2023-06-26T12:06:31;34.60;42.30
59234;DHT22;60776;51.702;7.462;2023-06-26T12:08:59;35.70;41.00
59234;DHT22;60776;51.702;7.462;2023-06-26T12:11:26;36.40;40.00
59234;DHT22;60776;51.702;7.462;2023-06-26T12:13:54;36.50;39.50
59234;DHT22;60776;51.702;7.462;2023-06-26T12:16:20;36.90;39.10
59234;DHT22;60776;51.702;7.462;2023-06-26T12:18:46;37.00;38.00
59234;DHT22;60776;51.702;7.462;2023-06-26T12:24:04;36.10;39.10
59234;DHT22;60776;51.702;7.462;2023-06-26T12:26:30;36.20;39.30
59234;DHT22;60776;51.702;7.462;2023-06-26T12:29:28;36.00;38.00
59234;DHT22;60776;51.702;7.462;2023-06-26T12:31:54;35.70;37.80
59234;DHT22;60776;51.702;7.462;2023-06-26T12:34:32;35.40;38.20
59234;DHT22;60776;51.702;7.462;2023-06-26T12:37:04;35.30;39.90
59234;DHT22;60776;51.702;7.462;2023-06-26T12:39:29;35.80;39.70
59234;DHT22;60776;51.702;7.462;2023-06-26T12:42:14;35.80;38.50
59234;DHT22;60776;51.702;7.462;2023-06-26T12:44:39;35.60;38.30
59234;DHT22;60776;51.702;7.462;2023-06-26T12:47:05;35.10;38.90
59234;DHT22;60776;51.702;7.462;2023-06-26T12:49:36;34.90;38.80
59234;DHT22;60776;51.702;7.462;2023-06-26T12:52:06;34.50;39.50
59234;DHT22;60776;51.702;7.462;2023-06-26T12:54:37;33.70;39.60
59234;DHT22;60776;51.702;7.462;2023-06-26T12:57:04;33.40;39.40
59234;DHT22;60776;51.702;7.462;2023-06-26T12:59:30;33.20;39.80
59234;DHT22;60776;51.702;7.462;2023-06-26T13:01:57;33.00;40.30
59234;DHT22;60776;51.702;7.462;2023-06-26T13:04:23;32.60;40.40
59234;DHT22;60776;51.702;7.462;2023-06-26T13:06:49;32.20;40.20
59234;DHT22;60776;51.702;7.462;2023-06-26T13:09:19;32.00;39.40
59234;DHT22;60776;51.702;7.462;2023-06-26T13:11:45;31.80;38.80
59234;DHT22;60776;51.702;7.462;2023-06-26T13:14:12;31.50;39.90
59234;DHT22;60776;51.702;7.462;2023-06-26T13:16:38;31.30;41.60
59234;DHT22;60776;51.702;7.462;2023-06-26T13:19:04;31.10;42.40
59234;DHT22;60776;51.702;7.462;2023-06-26T13:21:29;31.00;42.90
59234;DHT22;60776;51.702;7.462;2023-06-26T13:23:56;30.70;42.50
59234;DHT22;60776;51.702;7.462;2023-06-26T13:26:29;30.70;43.00
59234;DHT22;60776;51.702;7.462;2023-06-26T13:28:58;30.50;42.60
59234;DHT22;60776;51.702;7.462;2023-06-26T13:31:24;30.50;42.90
59234;DHT22;60776;51.702;7.462;2023-06-26T13:33:50;30.60;42.60
59234;DHT22;60776;51.702;7.462;2023-06-26T13:36:16;30.30;43.10
59234;DHT22;60776;51.702;7.462;2023-06-26T13:38:42;30.50;43.30
59234;DHT22;60776;51.702;7.462;2023-06-26T13:41:08;30.20;43.20
59234;DHT22;60776;51.702;7.462;2023-06-26T13:43:33;30.00;43.70
59234;DHT22;60776;51.702;7.462;2023-06-26T13:46:00;29.70;43.90
59234;DHT22;60776;51.702;7.462;2023-06-26T13:48:26;29.50;44.80
59234;DHT22;60776;51.702;7.462;2023-06-26T13:50:52;29.60;45.40
59234;DHT22;60776;51.702;7.462;2023-06-26T13:53:21;29.60;45.40
59234;DHT22;60776;51.702;7.462;2023-06-26T13:55:46;29.70;45.50
59234;DHT22;60776;51.702;7.462;2023-06-26T13:58:12;29.80;45.00
59234;DHT22;60776;51.702;7.462;2023-06-26T14:00:39;30.00;44.50
59234;DHT22;60776;51.702;7.462;2023-06-26T14:03:06;29.60;43.80
59234;DHT22;60776;51.702;7.462;2023-06-26T14:05:35;29.60;44.80
59234;DHT22;60776;51.702;7.462;2023-06-26T14:08:07;29.50;44.00
59234;DHT22;60776;51.702;7.462;2023-06-26T14:10:33;29.60;44.30
59234;DHT22;60776;51.702;7.462;2023-06-26T14:12:59;29.60;44.50
59234;DHT22;60776;51.702;7.462;2023-06-26T14:15:25;29.30;44.80
59234;DHT22;60776;51.702;7.462;2023-06-26T14:17:51;29.40;45.50
59234;DHT22;60776;51.702;7.462;2023-06-26T14:20:25;29.60;45.90
59234;DHT22;60776;51.702;7.462;2023-06-26T14:22:58;29.70;44.70
59234;DHT22;60776;51.702;7.462;2023-06-26T14:25:25;29.50;44.70
59234;DHT22;60776;51.702;7.462;2023-06-26T14:27:54;29.30;44.70
59234;DHT22;60776;51.702;7.462;2023-06-26T14:30:20;29.20;44.40
59234;DHT22;60776;51.702;7.462;2023-06-26T14:32:46;29.00;44.30
59234;DHT22;60776;51.702;7.462;2023-06-26T14:35:11;28.90;44.10
59234;DHT22;60776;51.702;7.462;2023-06-26T14:37:37;28.90;43.80
59234;DHT22;60776;51.702;7.462;2023-06-26T14:40:12;28.90;44.10
59234;DHT22;60776;51.702;7.462;2023-06-26T14:42:38;29.00;43.70
59234;DHT22;60776;51.702;7.462;2023-06-26T14:45:04;29.20;43.50
59234;DHT22;60776;51.702;7.462;2023-06-26T14:47:30;29.20;43.50
59234;DHT22;60776;51.702;7.462;2023-06-26T14:49:55;29.20;43.50
59234;DHT22;60776;51.702;7.462;2023-06-26T14:52:24;29.10;43.50
59234;DHT22;60776;51.702;7.462;2023-06-26T14:54:52;28.90;42.60
59234;DHT22;60776;51.702;7.462;2023-06-26T14:57:18;28.80;42.20
59234;DHT22;60776;51.702;7.462;2023-06-26T14:59:44;28.60;42.70
59234;DHT22;60776;51.702;7.462;2023-06-26T15:02:09;28.60;43.10
59234;DHT22;60776;51.702;7.462;2023-06-26T15:04:35;28.60;43.10
59234;DHT22;60776;51.702;7.462;2023-06-26T15:07:01;28.70;42.30
59234;DHT22;60776;51.702;7.462;2023-06-26T15:09:26;28.90;42.50
59234;DHT22;60776;51.702;7.462;2023-06-26T15:11:54;29.00;42.60
59234;DHT22;60776;51.702;7.462;2023-06-26T15:14:20;29.00;41.80
59234;DHT22;60776;51.702;7.462;2023-06-26T15:16:46;29.00;41.70
59234;DHT22;60776;51.702;7.462;2023-06-26T15:19:11;28.90;41.40
59234;DHT22;60776;51.702;7.462;2023-06-26T15:21:37;28.80;42.20
59234;DHT22;60776;51.702;7.462;2023-06-26T15:24:03;28.90;42.20
59234;DHT22;60776;51.702;7.462;2023-06-26T15:26:29;28.80;42.60
59234;DHT22;60776;51.702;7.462;2023-06-26T15:28:54;28.80;43.10
59234;DHT22;60776;51.702;7.462;2023-06-26T15:31:20;28.80;42.50
59234;DHT22;60776;51.702;7.462;2023-06-26T15:33:46;28.80;42.80
59234;DHT22;60776;51.702;7.462;2023-06-26T15:36:11;28.90;43.10
59234;DHT22;60776;51.702;7.462;2023-06-26T15:38:37;28.80;42.60
59234;DHT22;60776;51.702;7.462;2023-06-26T15:41:03;28.80;43.20
59234;DHT22;60776;51.702;7.462;2023-06-26T15:43:28;28.70;43.20
59234;DHT22;60776;51.702;7.462;2023-06-26T15:45:54;28.60;43.20